createdAt,value
2022-08-17T00:00:42.925Z,75.96
2022-08-17T00:04:38.083Z,76.03
2022-08-17T00:08:25.732Z,76.09
2022-08-17T00:12:42.744Z,75.95
2022-08-17T00:16:55.495Z,75.80
2022-08-17T00:20:34.850Z,75.59
2022-08-17T01:16:55.553Z,73.09
2022-08-17T01:20:48.211Z,73.13
2022-08-17T01:34:42.798Z,73.33
2022-08-17T01:38:40.302Z,73.70
2022-08-17T02:41:20.521Z,75.12
2022-08-17T02:45:08.610Z,74.90
2022-08-17T02:48:57.208Z,74.58
2022-08-17T02:52:45.726Z,74.23
2022-08-17T04:33:04.018Z,75.56
2022-08-17T04:37:32.194Z,75.33
2022-08-17T04:41:19.823Z,74.96
2022-08-17T04:43:10.687Z,75.80
2022-08-17T05:13:59.262Z,73.41
2022-08-17T05:19:36.449Z,73.04
2022-08-17T05:22:10.990Z,73.81
2022-08-17T05:35:17.302Z,74.37
2022-08-17T05:37:10.701Z,74.26
2022-08-17T05:39:05.694Z,74.47
2022-08-17T05:42:54.131Z,74.65
2022-08-17T05:46:58.900Z,74.81
2022-08-17T05:50:47.458Z,75.21
2022-08-17T05:59:13.190Z,75.67
2022-08-17T06:03:22.530Z,75.72
2022-08-17T06:07:25.720Z,75.61
2022-08-17T06:11:30.035Z,75.62
2022-08-17T06:15:37.789Z,75.50
2022-08-17T06:29:37.980Z,74.66
2022-08-17T06:43:12.871Z,73.04
2022-08-17T06:47:07.724Z,72.15
2022-08-17T07:00:07.874Z,70.72
2022-08-17T07:03:25.921Z,70.49
2022-08-17T07:06:37.774Z,69.89
2022-08-17T07:10:22.591Z,69.81
2022-08-17T07:18:21.390Z,68.82
2022-08-17T07:21:58.742Z,68.46
2022-08-17T07:25:37.576Z,67.86
2022-08-17T07:28:29.196Z,67.24
2022-08-17T07:31:04.057Z,66.15
2022-08-17T07:33:36.085Z,66.39
2022-08-17T07:36:03.298Z,66.77
2022-08-17T07:38:35.218Z,66.89
2022-08-17T07:41:08.901Z,66.82
2022-08-17T07:43:46.561Z,66.67
2022-08-17T07:46:49.981Z,66.61
2022-08-17T07:49:32.358Z,66.65
2022-08-17T07:52:48.227Z,66.58
2022-08-17T07:54:51.651Z,66.42
2022-08-17T07:57:18.568Z,66.44
2022-08-17T08:00:01.842Z,66.36
2022-08-17T08:02:45.519Z,66.33
2022-08-17T08:05:12.341Z,66.13
2022-08-17T08:07:50.683Z,65.73
2022-08-17T08:10:57.128Z,65.51
2022-08-17T08:13:27.349Z,65.60
2022-08-17T08:16:19.406Z,65.53
2022-08-17T08:18:54.066Z,65.62
2022-08-17T08:21:41.769Z,65.57
2022-08-17T08:24:14.400Z,65.20
2022-08-17T08:26:59.740Z,64.87
2022-08-17T08:29:48.184Z,64.82
2022-08-17T08:32:43.697Z,64.56
2022-08-17T08:35:18.525Z,64.62
2022-08-17T08:38:24.157Z,64.21
2022-08-17T08:41:21.033Z,63.82
2022-08-17T08:44:03.157Z,63.38
2022-08-17T08:46:44.915Z,63.54
2022-08-17T08:50:04.808Z,63.58
2022-08-17T08:52:54.505Z,63.44
2022-08-17T08:55:44.109Z,63.20
2022-08-17T08:58:31.884Z,63.02
2022-08-17T09:01:17.134Z,62.52
2022-08-17T09:04:29.686Z,62.64
2022-08-17T09:07:09.439Z,62.88
2022-08-17T09:09:58.984Z,63.23
2022-08-17T09:12:35.261Z,63.23
2022-08-17T09:15:31.476Z,63.24
2022-08-17T09:19:00.480Z,63.02
2022-08-17T09:21:18.479Z,62.44
2022-08-17T09:24:06.408Z,62.45
2022-08-17T09:26:53.277Z,62.13
2022-08-17T09:29:24.792Z,61.68
2022-08-17T09:31:59.142Z,61.40
2022-08-17T09:34:38.113Z,61.63
2022-08-17T09:37:17.623Z,61.61
2022-08-17T09:40:13.066Z,61.64
2022-08-17T09:42:48.224Z,61.70
2022-08-17T09:45:37.137Z,61.80
2022-08-17T09:48:11.530Z,61.35
2022-08-17T09:51:22.971Z,61.29
2022-08-17T09:53:50.529Z,61.40
2022-08-17T09:57:28.510Z,61.23
2022-08-17T10:00:15.714Z,58.53
2022-08-17T10:03:03.985Z,58.17
2022-08-17T10:05:50.645Z,58.67
2022-08-17T10:08:43.304Z,57.33
2022-08-17T10:11:57.609Z,57.05
2022-08-17T10:14:36.928Z,58.01
2022-08-17T10:17:20.690Z,58.27
2022-08-17T10:20:15.461Z,57.06
2022-08-17T10:23:08.560Z,57.86
2022-08-17T10:26:12.189Z,58.32
2022-08-17T10:28:43.169Z,57.78
2022-08-17T10:31:34.317Z,57.53
2022-08-17T10:34:01.585Z,56.78
2022-08-17T10:37:05.527Z,56.84
2022-08-17T10:39:52.323Z,57.27
2022-08-17T10:42:30.362Z,57.91
2022-08-17T10:45:18.439Z,57.98
2022-08-17T10:48:06.853Z,57.14
2022-08-17T10:50:46.923Z,56.88
2022-08-17T10:53:40.358Z,56.82
2022-08-17T10:56:13.067Z,54.31
2022-08-17T10:58:53.489Z,53.77
2022-08-17T11:01:32.157Z,54.16
2022-08-17T11:04:02.943Z,53.21
2022-08-17T11:06:29.444Z,54.24
2022-08-17T11:08:58.957Z,52.83
2022-08-17T11:11:39.549Z,52.95
2022-08-17T11:14:10.605Z,53.55
2022-08-17T11:16:47.414Z,52.32
2022-08-17T11:19:26.691Z,51.41
2022-08-17T11:22:21.722Z,50.77
2022-08-17T11:24:52.639Z,51.51
2022-08-17T11:27:32.403Z,52.45
2022-08-17T11:30:05.556Z,52.80
2022-08-17T11:32:55.461Z,53.04
2022-08-17T11:35:23.858Z,52.80
2022-08-17T11:37:53.490Z,52.67
2022-08-17T11:40:33.768Z,51.99
2022-08-17T11:43:29.010Z,50.93
2022-08-17T11:46:15.516Z,51.25
2022-08-17T11:49:05.608Z,49.95
2022-08-17T11:51:59.748Z,48.98
2022-08-17T11:54:33.262Z,49.26
2022-08-17T11:57:33.420Z,49.60
2022-08-17T12:01:08.400Z,48.95
2022-08-17T12:04:35.894Z,48.61
2022-08-17T12:07:32.241Z,47.78
2022-08-17T12:10:45.182Z,46.80
2022-08-17T12:13:52.629Z,46.34
2022-08-17T12:16:22.094Z,46.61
2022-08-17T12:19:37.176Z,45.99
2022-08-17T12:22:52.857Z,47.45
2022-08-17T12:26:00.977Z,47.91
2022-08-17T12:28:38.275Z,48.17
2022-08-17T12:31:30.523Z,48.54
2022-08-17T12:34:18.470Z,48.40
2022-08-17T12:37:55.190Z,48.14
2022-08-17T12:41:47.846Z,46.85
2022-08-17T12:45:01.547Z,45.45
2022-08-17T12:47:47.353Z,44.95
2022-08-17T12:50:47.614Z,44.32
2022-08-17T12:53:47.539Z,45.24
2022-08-17T12:56:16.374Z,44.21
2022-08-17T12:59:11.731Z,43.80
2022-08-17T13:01:42.631Z,45.58
2022-08-17T13:05:10.979Z,46.20
2022-08-17T13:09:00.780Z,46.18
2022-08-17T13:12:32.013Z,46.03
2022-08-17T13:16:21.638Z,46.14
2022-08-17T13:19:48.880Z,46.21
2022-08-17T13:23:36.397Z,46.04
2022-08-17T13:27:32.753Z,45.31
2022-08-17T13:31:20.283Z,42.94
2022-08-17T13:35:13.781Z,42.68
2022-08-17T13:38:30.752Z,43.17
2022-08-17T13:41:44.658Z,43.47
2022-08-17T13:45:34.875Z,44.50
2022-08-17T13:48:35.670Z,44.76
2022-08-17T13:52:07.357Z,44.65
2022-08-17T13:55:34.292Z,45.10
2022-08-17T13:59:09.362Z,45.16
2022-08-17T14:02:56.907Z,44.67
2022-08-17T14:06:52.154Z,43.70
2022-08-17T14:10:40.314Z,43.47
2022-08-17T14:14:27.840Z,44.21
2022-08-17T14:18:15.338Z,43.37
2022-08-17T14:22:02.935Z,44.68
2022-08-17T14:25:32.627Z,44.00
2022-08-17T14:29:16.913Z,42.79
2022-08-17T14:33:04.047Z,42.11
2022-08-17T14:36:51.195Z,42.15
2022-08-17T14:40:38.647Z,42.06
2022-08-17T14:44:26.694Z,42.42
2022-08-17T14:48:13.624Z,42.90
2022-08-17T14:51:51.346Z,42.55
2022-08-17T14:55:38.959Z,43.17
2022-08-17T15:00:31.432Z,43.67
2022-08-17T15:03:42.805Z,44.27
2022-08-17T15:07:32.850Z,45.09
2022-08-17T15:11:20.359Z,46.14
2022-08-17T15:15:07.958Z,46.91
2022-08-17T15:19:01.867Z,47.49
2022-08-17T15:22:51.553Z,47.78
2022-08-17T15:26:39.038Z,47.87
2022-08-17T15:30:26.516Z,48.06
2022-08-17T15:34:14.062Z,48.45
2022-08-17T15:38:04.931Z,48.23
2022-08-17T15:41:58.422Z,48.11
2022-08-17T15:45:58.807Z,48.42
2022-08-17T15:49:47.691Z,50.43
2022-08-17T15:53:35.239Z,53.69
2022-08-17T15:57:24.207Z,57.66
2022-08-17T16:01:14.114Z,59.57
2022-08-17T16:05:04.636Z,62.15
2022-08-17T16:08:57.747Z,64.61
2022-08-17T16:11:45.432Z,66.72
2022-08-17T16:14:19.673Z,67.11
2022-08-17T16:16:49.085Z,67.38
2022-08-17T16:19:15.689Z,68.15
2022-08-17T16:21:43.161Z,68.74
2022-08-17T16:24:13.114Z,69.07
2022-08-17T16:26:41.223Z,69.45
2022-08-17T16:29:09.201Z,69.40
2022-08-17T16:31:37.112Z,69.45
2022-08-17T16:34:17.876Z,69.28
2022-08-17T16:36:54.978Z,68.90
2022-08-17T16:39:48.505Z,68.92
2022-08-17T16:42:29.575Z,68.11
2022-08-17T16:45:02.359Z,67.84
2022-08-17T16:47:29.025Z,68.29
2022-08-17T16:49:55.696Z,68.52
2022-08-17T16:52:32.480Z,68.68
2022-08-17T16:55:02.021Z,68.90
2022-08-17T16:57:29.555Z,68.89
2022-08-17T16:59:56.769Z,68.92
2022-08-17T17:02:35.848Z,69.12
2022-08-17T17:05:27.160Z,69.27
2022-08-17T17:08:17.607Z,69.43
2022-08-17T17:10:48.543Z,69.62
2022-08-17T17:13:31.592Z,69.40
2022-08-17T17:16:30.937Z,69.16
2022-08-17T17:19:12.744Z,68.93
2022-08-17T17:21:39.756Z,68.87
2022-08-17T17:24:13.585Z,69.25
2022-08-17T17:26:56.028Z,69.26
2022-08-17T17:29:47.941Z,69.30
2022-08-17T17:32:24.083Z,69.35
2022-08-17T17:34:56.075Z,69.61
2022-08-17T17:37:32.091Z,69.60
2022-08-17T17:40:05.180Z,69.77
2022-08-17T17:42:32.789Z,69.67
2022-08-17T17:45:15.364Z,69.70
2022-08-17T17:47:43.468Z,69.53
2022-08-17T17:50:11.194Z,69.67
2022-08-17T17:52:49.838Z,69.71
2022-08-17T17:55:26.396Z,69.94
2022-08-17T17:58:02.317Z,70.30
2022-08-17T18:00:42.967Z,70.51
2022-08-17T18:03:12.666Z,70.32
2022-08-17T18:06:06.345Z,70.46
2022-08-17T18:08:35.678Z,70.61
2022-08-17T18:11:51.440Z,70.65
2022-08-17T18:14:36.954Z,70.79
2022-08-17T18:17:03.589Z,70.74
2022-08-17T18:19:31.409Z,70.80
2022-08-17T18:22:14.447Z,70.73
2022-08-17T18:24:45.680Z,70.68
2022-08-17T18:27:31.162Z,70.65
2022-08-17T18:30:22.039Z,70.62
2022-08-17T18:32:49.475Z,70.72
2022-08-17T18:35:19.085Z,70.80
2022-08-17T18:38:19.448Z,70.63
2022-08-17T18:40:58.036Z,70.50
2022-08-17T18:43:44.417Z,70.27
2022-08-17T18:46:29.694Z,70.09
2022-08-17T18:49:06.990Z,69.87
2022-08-17T18:51:40.629Z,69.92
2022-08-17T18:54:18.156Z,69.76
2022-08-17T18:56:48.802Z,69.74
2022-08-17T18:59:26.491Z,69.71
2022-08-17T19:01:58.444Z,69.65
2022-08-17T19:04:40.613Z,69.53
2022-08-17T19:07:16.283Z,69.43
2022-08-17T19:09:47.961Z,69.29
2022-08-17T19:12:39.766Z,69.27
2022-08-17T19:15:09.973Z,69.31
2022-08-17T19:17:48.714Z,69.43
2022-08-17T19:20:19.833Z,69.50
2022-08-17T19:23:01.631Z,69.49
2022-08-17T19:25:40.424Z,69.54
2022-08-17T19:28:22.641Z,69.74
2022-08-17T19:31:13.569Z,69.91
2022-08-17T19:33:40.161Z,70.06
2022-08-17T19:36:18.069Z,70.06
2022-08-17T19:38:56.346Z,70.01
2022-08-17T19:41:28.412Z,69.90
2022-08-17T19:44:01.985Z,69.86
2022-08-17T19:46:37.404Z,69.91
2022-08-17T19:49:34.463Z,69.91
2022-08-17T19:52:39.146Z,69.80
2022-08-17T19:55:14.722Z,69.64
2022-08-17T19:57:54.556Z,69.56
2022-08-17T20:00:21.440Z,69.41
2022-08-17T20:02:54.302Z,69.27
2022-08-17T20:05:44.213Z,69.19
2022-08-17T20:08:41.880Z,68.92
2022-08-17T20:11:44.684Z,68.65
2022-08-17T20:14:23.690Z,68.52
2022-08-17T20:16:51.919Z,68.55
2022-08-17T20:19:24.327Z,68.37
2022-08-17T20:22:06.623Z,68.16
2022-08-17T20:25:30.525Z,68.04
2022-08-17T20:28:30.560Z,67.99
2022-08-17T20:31:44.817Z,68.02
2022-08-17T20:34:54.377Z,68.13
2022-08-17T20:37:30.576Z,68.05
2022-08-17T20:40:05.859Z,68.00
2022-08-17T20:42:33.888Z,67.87
2022-08-17T20:45:23.816Z,67.95
2022-08-17T20:51:00.730Z,68.10
2022-08-17T20:53:46.324Z,68.09
2022-08-17T20:56:32.799Z,68.22
2022-08-17T20:59:00.223Z,68.23
2022-08-17T21:02:06.661Z,68.19
2022-08-17T21:05:04.351Z,68.19
2022-08-17T21:07:42.613Z,68.32
2022-08-17T21:10:25.200Z,68.46
2022-08-17T21:12:59.013Z,68.48
2022-08-17T21:15:48.463Z,68.55
2022-08-17T21:18:27.430Z,68.73
2022-08-17T21:21:37.309Z,68.75
2022-08-17T21:24:06.962Z,68.83
2022-08-17T21:26:50.736Z,68.80
2022-08-17T21:29:32.045Z,68.84
2022-08-17T21:32:02.388Z,68.87
2022-08-17T21:34:43.820Z,68.75
2022-08-17T21:37:19.929Z,68.64
2022-08-17T21:40:00.925Z,68.54
2022-08-17T21:42:34.016Z,68.44
2022-08-17T21:45:20.329Z,68.23
2022-08-17T21:48:07.415Z,67.95
2022-08-17T21:50:36.893Z,67.75
2022-08-17T21:53:05.582Z,67.68
2022-08-17T21:55:35.584Z,67.61
2022-08-17T21:58:14.178Z,67.45
2022-08-17T22:00:54.657Z,67.44
2022-08-17T22:03:25.719Z,67.36
2022-08-17T22:05:52.637Z,67.31
2022-08-17T22:08:23.951Z,67.20
2022-08-17T22:11:01.484Z,67.15
2022-08-17T22:13:29.591Z,67.11
2022-08-17T22:16:15.377Z,67.09
2022-08-17T22:18:57.726Z,67.20
2022-08-17T22:21:25.255Z,67.31
2022-08-17T22:24:24.064Z,67.33
2022-08-17T22:27:10.790Z,67.48
2022-08-17T22:29:57.558Z,67.59
2022-08-17T22:32:44.143Z,67.69
2022-08-17T22:35:20.350Z,67.77
2022-08-17T22:37:47.194Z,67.82
2022-08-17T22:40:29.827Z,67.82
2022-08-17T22:42:58.253Z,67.94
2022-08-17T22:45:30.495Z,67.92
2022-08-17T22:47:59.504Z,67.97
2022-08-17T22:50:28.985Z,68.07
2022-08-17T22:53:20.652Z,68.17
2022-08-17T22:56:12.886Z,68.15
2022-08-17T22:59:13.400Z,68.33
2022-08-17T23:01:42.010Z,68.26
2022-08-17T23:04:29.214Z,68.37
2022-08-17T23:06:55.999Z,68.43
2022-08-17T23:09:22.620Z,68.53
2022-08-17T23:11:58.313Z,68.57
2022-08-17T23:14:30.943Z,68.49
2022-08-17T23:16:58.877Z,68.55
2022-08-17T23:19:27.386Z,68.58
2022-08-17T23:21:55.900Z,68.38
2022-08-17T23:24:26.615Z,68.24
2022-08-17T23:26:56.672Z,68.14
2022-08-17T23:29:24.703Z,68.17
2022-08-17T23:31:52.633Z,68.15
2022-08-17T23:34:19.423Z,67.93
2022-08-17T23:36:50.210Z,67.76
2022-08-17T23:39:24.284Z,67.60
2022-08-17T23:41:59.856Z,67.45
2022-08-17T23:44:30.511Z,67.42
2022-08-17T23:46:57.198Z,67.48
2022-08-17T23:49:24.691Z,67.55
2022-08-17T23:51:54.522Z,67.64
2022-08-17T23:54:23.501Z,67.70
2022-08-17T23:56:50.265Z,67.91
2022-08-17T23:59:19.180Z,68.19
